createdAt,value
2022-10-01T00:02:00.939Z,88.05
2022-10-01T00:04:27.970Z,88.38
2022-10-01T00:06:54.580Z,88.04
2022-10-01T00:09:21.033Z,88.33
2022-10-01T00:11:47.450Z,88.46
2022-10-01T00:14:14.094Z,88.71
2022-10-01T00:16:40.523Z,89.01
2022-10-01T00:19:06.865Z,89.55
2022-10-01T00:21:33.569Z,89.31
2022-10-01T00:24:04.475Z,89.27
2022-10-01T00:26:36.369Z,89.68
2022-10-01T00:29:06.795Z,89.85
2022-10-01T00:31:34.038Z,89.84
2022-10-01T00:34:05.104Z,90.28
2022-10-01T00:36:33.116Z,89.96
2022-10-01T00:39:02.567Z,90.09
2022-10-01T00:41:33.054Z,90.41
2022-10-01T00:44:02.580Z,90.87
2022-10-01T00:46:42.830Z,91.21
2022-10-01T00:49:37.166Z,91.12
2022-10-01T00:52:07.216Z,91.20
2022-10-01T00:54:41.982Z,91.37
2022-10-01T00:57:08.855Z,91.52
2022-10-01T00:59:36.686Z,91.51
2022-10-01T01:02:03.714Z,91.29
2022-10-01T01:04:31.099Z,91.87
2022-10-01T01:07:00.858Z,91.66
2022-10-01T01:09:32.693Z,91.41
2022-10-01T01:12:24.710Z,91.77
2022-10-01T01:15:17.241Z,91.73
2022-10-01T01:18:10.918Z,91.56
2022-10-01T01:21:08.652Z,91.45
2022-10-01T01:23:56.487Z,91.44
2022-10-01T01:26:42.132Z,92.00
2022-10-01T01:29:18.180Z,91.87
2022-10-01T01:31:46.311Z,91.75
2022-10-01T01:34:18.411Z,91.65
2022-10-01T01:36:46.713Z,91.73
2022-10-01T01:39:17.126Z,91.19
2022-10-01T01:41:50.093Z,91.18
2022-10-01T01:44:27.292Z,91.31
2022-10-01T01:46:58.417Z,91.39
2022-10-01T01:49:27.626Z,91.57
2022-10-01T01:52:01.485Z,91.44
2022-10-01T01:54:29.454Z,91.70
2022-10-01T01:56:58.185Z,91.79
2022-10-01T01:59:26.761Z,91.86
2022-10-01T02:01:53.251Z,91.82
2022-10-01T02:04:37.427Z,92.17
2022-10-01T02:07:26.898Z,92.11
2022-10-01T02:10:15.272Z,92.32
2022-10-01T02:12:53.676Z,92.34
2022-10-01T02:15:36.952Z,92.57
2022-10-01T02:18:11.750Z,92.53
2022-10-01T02:21:07.011Z,92.54
2022-10-01T02:23:58.544Z,92.77
2022-10-01T02:26:27.996Z,92.92
2022-10-01T02:29:05.389Z,92.92
2022-10-01T02:31:33.193Z,92.98
2022-10-01T02:34:02.556Z,92.88
2022-10-01T02:36:33.513Z,93.17
2022-10-01T02:39:02.128Z,93.37
2022-10-01T02:41:35.538Z,93.14
2022-10-01T02:44:14.621Z,93.30
2022-10-01T02:46:54.237Z,93.20
2022-10-01T02:49:21.043Z,93.34
2022-10-01T02:52:02.463Z,93.36
2022-10-01T02:54:45.522Z,93.23
2022-10-01T02:57:29.640Z,93.30
2022-10-01T02:59:59.835Z,93.15
2022-10-01T03:02:28.225Z,93.51
2022-10-01T03:04:59.532Z,93.48
2022-10-01T03:07:27.568Z,93.67
2022-10-01T03:09:54.065Z,93.74
2022-10-01T03:12:20.464Z,93.63
2022-10-01T03:14:47.687Z,93.70
2022-10-01T03:17:16.401Z,93.95
2022-10-01T03:19:43.353Z,93.87
2022-10-01T03:22:12.929Z,93.71
2022-10-01T03:24:39.354Z,93.71
2022-10-01T03:27:06.045Z,93.62
2022-10-01T03:29:38.347Z,93.82
2022-10-01T03:32:06.161Z,94.12
2022-10-01T03:34:33.795Z,94.11
2022-10-01T03:37:01.529Z,94.29
2022-10-01T03:39:29.835Z,94.31
2022-10-01T03:41:56.330Z,94.16
2022-10-01T03:44:26.527Z,94.11
2022-10-01T03:46:52.924Z,94.38
2022-10-01T03:49:21.329Z,94.30
2022-10-01T03:51:47.867Z,94.17
2022-10-01T03:54:14.520Z,94.14
2022-10-01T03:56:42.603Z,94.13
2022-10-01T03:59:09.942Z,94.14
2022-10-01T04:01:36.870Z,94.13
2022-10-01T04:04:04.166Z,94.30
2022-10-01T04:09:12.532Z,94.30
2022-10-01T04:11:40.577Z,94.35
2022-10-01T04:14:06.960Z,94.24
2022-10-01T04:16:35.942Z,94.39
2022-10-01T04:19:03.537Z,94.27
2022-10-01T04:21:30.045Z,94.21
2022-10-01T04:24:04.234Z,94.09
2022-10-01T04:26:30.646Z,94.12
2022-10-01T04:29:06.482Z,94.08
2022-10-01T04:31:35.199Z,94.19
2022-10-01T04:34:02.478Z,94.04
2022-10-01T04:36:34.934Z,94.07
2022-10-01T04:39:03.657Z,94.17
2022-10-01T04:41:36.599Z,94.06
2022-10-01T04:44:03.387Z,93.76
2022-10-01T04:46:30.603Z,94.10
2022-10-01T04:48:57.208Z,93.71
2022-10-01T04:51:23.524Z,93.86
2022-10-01T04:53:49.846Z,93.87
2022-10-01T04:56:20.857Z,93.83
2022-10-01T04:58:59.751Z,93.89
2022-10-01T05:01:27.758Z,93.73
2022-10-01T05:04:10.656Z,93.87
2022-10-01T05:06:37.404Z,93.87
2022-10-01T05:09:04.148Z,94.05
2022-10-01T05:11:31.273Z,94.05
2022-10-01T05:13:57.791Z,94.14
2022-10-01T05:16:24.236Z,94.03
2022-10-01T05:18:50.635Z,94.50
2022-10-01T05:21:17.243Z,94.25
2022-10-01T05:23:43.652Z,94.12
2022-10-01T05:26:11.117Z,94.19
2022-10-01T05:28:39.015Z,94.27
2022-10-01T05:31:05.697Z,94.44
2022-10-01T05:33:36.695Z,94.39
2022-10-01T05:36:09.705Z,94.35
2022-10-01T05:38:38.827Z,94.43
2022-10-01T05:41:05.435Z,94.35
2022-10-01T05:43:33.155Z,94.42
2022-10-01T05:46:02.470Z,94.43
2022-10-01T05:48:29.426Z,94.39
2022-10-01T05:50:55.808Z,94.45
2022-10-01T05:53:23.806Z,94.54
2022-10-01T05:55:50.133Z,94.54
2022-10-01T05:58:16.872Z,94.65
2022-10-01T06:00:43.676Z,94.71
2022-10-01T06:03:12.923Z,94.51
2022-10-01T06:05:45.697Z,94.68
2022-10-01T06:08:21.473Z,94.65
2022-10-01T06:10:49.312Z,94.69
2022-10-01T06:13:18.257Z,94.61
2022-10-01T06:15:47.593Z,94.73
2022-10-01T06:18:14.563Z,94.59
2022-10-01T06:20:41.036Z,94.64
2022-10-01T06:23:12.074Z,94.53
2022-10-01T06:25:42.153Z,94.59
2022-10-01T06:28:14.963Z,94.36
2022-10-01T06:30:42.433Z,94.51
2022-10-01T06:33:13.960Z,94.71
2022-10-01T06:35:43.163Z,94.63
2022-10-01T06:38:12.353Z,94.21
2022-10-01T06:40:43.284Z,93.47
2022-10-01T06:43:10.435Z,92.56
2022-10-01T06:45:40.505Z,92.07
2022-10-01T06:48:08.307Z,91.25
2022-10-01T06:50:37.401Z,90.73
2022-10-01T06:53:06.476Z,90.52
2022-10-01T06:55:35.387Z,90.63
2022-10-01T06:58:08.503Z,90.63
2022-10-01T07:00:36.342Z,90.56
2022-10-01T07:03:11.063Z,90.37
2022-10-01T07:05:38.382Z,90.61
2022-10-01T07:08:05.668Z,90.51
2022-10-01T07:10:34.201Z,89.85
2022-10-01T07:13:16.335Z,89.91
2022-10-01T07:15:44.737Z,89.88
2022-10-01T07:18:11.923Z,90.03
2022-10-01T07:20:41.989Z,90.23
2022-10-01T07:23:12.295Z,90.42
2022-10-01T07:25:40.306Z,90.49
2022-10-01T07:28:15.949Z,90.77
2022-10-01T07:30:56.593Z,90.69
2022-10-01T07:33:26.158Z,90.61
2022-10-01T07:35:52.649Z,90.70
2022-10-01T07:38:19.082Z,90.84
2022-10-01T07:40:52.466Z,90.74
2022-10-01T07:43:19.055Z,90.61
2022-10-01T07:45:47.200Z,90.56
2022-10-01T07:48:14.992Z,90.52
2022-10-01T07:50:45.169Z,90.37
2022-10-01T07:53:12.041Z,90.38
2022-10-01T07:55:38.407Z,90.36
2022-10-01T07:58:06.351Z,90.93
2022-10-01T08:00:34.169Z,91.82
2022-10-01T08:03:00.841Z,91.46
2022-10-01T08:05:32.878Z,90.25
2022-10-01T08:08:04.201Z,88.36
2022-10-01T08:10:31.003Z,86.75
2022-10-01T08:13:02.283Z,86.03
2022-10-01T08:15:29.138Z,85.89
2022-10-01T08:17:57.341Z,86.55
2022-10-01T08:20:26.934Z,85.65
2022-10-01T08:22:53.346Z,85.30
2022-10-01T08:25:20.032Z,84.83
2022-10-01T08:27:48.389Z,85.53
2022-10-01T08:30:15.013Z,85.21
2022-10-01T08:32:41.682Z,83.94
2022-10-01T08:35:08.488Z,82.54
2022-10-01T08:37:34.835Z,81.44
2022-10-01T08:40:01.567Z,81.37
2022-10-01T08:42:42.066Z,81.34
2022-10-01T08:45:17.042Z,80.83
2022-10-01T08:48:25.346Z,79.81
2022-10-01T08:51:03.746Z,81.26
2022-10-01T08:53:37.955Z,81.14
2022-10-01T08:56:06.765Z,77.93
2022-10-01T08:58:45.085Z,76.57
2022-10-01T09:01:12.251Z,72.31
2022-10-01T09:03:39.977Z,71.89
2022-10-01T09:06:19.982Z,68.92
2022-10-01T09:08:53.630Z,67.84
2022-10-01T09:11:42.029Z,66.02
2022-10-01T09:14:11.254Z,64.05
2022-10-01T09:16:47.714Z,62.69
2022-10-01T09:19:47.973Z,62.74
2022-10-01T09:22:36.964Z,62.28
2022-10-01T09:25:14.451Z,63.16
2022-10-01T09:27:40.907Z,61.78
2022-10-01T09:30:11.833Z,60.69
2022-10-01T09:32:50.783Z,61.10
2022-10-01T09:35:38.687Z,58.02
2022-10-01T09:38:33.227Z,56.16
2022-10-01T09:40:59.662Z,57.37
2022-10-01T09:43:31.786Z,59.98
2022-10-01T09:45:59.075Z,61.03
2022-10-01T09:48:36.541Z,61.61
2022-10-01T09:51:16.212Z,57.98
2022-10-01T09:53:49.319Z,57.44
2022-10-01T09:56:33.918Z,56.68
2022-10-01T09:59:05.165Z,55.02
2022-10-01T10:01:49.627Z,53.71
2022-10-01T10:04:21.368Z,52.19
2022-10-01T10:06:47.927Z,51.59
2022-10-01T10:09:22.592Z,50.50
2022-10-01T10:11:50.672Z,50.68
2022-10-01T10:14:30.991Z,50.25
2022-10-01T10:17:01.156Z,49.56
2022-10-01T10:19:28.222Z,48.98
2022-10-01T10:22:00.553Z,49.31
2022-10-01T10:24:32.588Z,49.29
2022-10-01T10:27:00.953Z,49.28
2022-10-01T10:29:32.934Z,48.89
2022-10-01T10:32:03.107Z,47.84
2022-10-01T10:34:32.546Z,46.78
2022-10-01T10:37:05.619Z,46.12
2022-10-01T10:39:40.027Z,46.45
2022-10-01T10:42:09.052Z,45.97
2022-10-01T10:44:39.661Z,47.37
2022-10-01T10:47:10.459Z,47.73
2022-10-01T10:49:58.657Z,49.26
2022-10-01T10:52:37.021Z,48.98
2022-10-01T10:55:28.226Z,48.46
2022-10-01T10:57:57.750Z,49.99
2022-10-01T11:00:26.251Z,50.24
2022-10-01T11:03:05.171Z,50.19
2022-10-01T11:05:40.687Z,49.70
2022-10-01T11:08:15.525Z,49.14
2022-10-01T11:11:05.795Z,49.05
2022-10-01T11:13:54.197Z,47.91
2022-10-01T11:16:34.463Z,46.33
2022-10-01T11:19:14.266Z,46.90
2022-10-01T11:22:09.829Z,46.96
2022-10-01T11:24:51.331Z,49.04
2022-10-01T11:27:52.588Z,48.77
2022-10-01T11:30:26.400Z,48.58
2022-10-01T11:33:22.358Z,48.68
2022-10-01T11:36:12.253Z,48.77
2022-10-01T11:38:59.396Z,47.91
2022-10-01T11:42:10.755Z,47.02
2022-10-01T11:44:44.354Z,45.40
2022-10-01T11:47:20.653Z,45.85
2022-10-01T11:50:05.511Z,44.90
2022-10-01T11:52:37.531Z,44.51
2022-10-01T11:55:58.291Z,45.15
2022-10-01T11:58:54.163Z,45.70
2022-10-01T12:01:45.836Z,45.84
2022-10-01T12:04:27.618Z,45.69
2022-10-01T12:07:12.816Z,45.67
2022-10-01T12:09:46.754Z,47.46
2022-10-01T12:12:32.586Z,48.80
2022-10-01T12:15:40.147Z,49.77
2022-10-01T12:18:31.973Z,50.45
2022-10-01T12:21:23.667Z,50.09
2022-10-01T12:24:05.130Z,50.49
2022-10-01T12:26:46.293Z,49.21
2022-10-01T12:29:21.519Z,48.73
2022-10-01T12:31:58.928Z,48.59
2022-10-01T12:35:07.041Z,48.53
2022-10-01T12:38:16.929Z,47.17
2022-10-01T12:40:51.532Z,48.13
2022-10-01T12:43:24.820Z,48.38
2022-10-01T12:45:56.052Z,49.00
2022-10-01T12:48:43.050Z,49.88
2022-10-01T12:51:27.121Z,49.46
2022-10-01T12:54:00.460Z,48.81
2022-10-01T12:56:42.142Z,48.93
2022-10-01T12:59:32.972Z,48.17
2022-10-01T13:02:07.806Z,46.45
2022-10-01T13:04:57.258Z,47.19
2022-10-01T13:07:48.948Z,45.09
2022-10-01T13:10:30.167Z,44.14
2022-10-01T13:13:14.181Z,44.33
2022-10-01T13:15:47.711Z,44.26
2022-10-01T13:18:35.958Z,45.42
2022-10-01T13:21:50.836Z,45.89
2022-10-01T13:24:44.454Z,45.87
2022-10-01T13:27:30.741Z,46.84
2022-10-01T13:30:26.189Z,47.06
2022-10-01T13:33:03.224Z,46.80
2022-10-01T13:35:40.180Z,47.13
2022-10-01T13:38:43.702Z,47.43
2022-10-01T13:41:24.067Z,47.61
2022-10-01T13:43:59.691Z,47.63
2022-10-01T13:46:31.941Z,47.40
2022-10-01T13:49:07.415Z,47.86
2022-10-01T13:51:35.904Z,47.65
2022-10-01T13:54:03.970Z,47.94
2022-10-01T13:56:37.432Z,48.35
2022-10-01T13:59:20.543Z,48.95
2022-10-01T14:01:46.952Z,49.15
2022-10-01T14:04:23.429Z,49.89
2022-10-01T14:06:57.022Z,50.02
2022-10-01T14:09:31.459Z,49.88
2022-10-01T14:12:22.845Z,50.27
2022-10-01T14:15:12.128Z,50.97
2022-10-01T14:17:39.462Z,53.90
2022-10-01T14:20:08.985Z,55.87
2022-10-01T14:22:46.610Z,56.95
2022-10-01T14:25:51.421Z,57.86
2022-10-01T14:28:37.574Z,57.90
2022-10-01T14:31:07.206Z,58.56
2022-10-01T14:33:48.922Z,59.58
2022-10-01T14:36:34.714Z,59.68
2022-10-01T14:39:19.741Z,59.25
2022-10-01T14:41:49.098Z,58.55
2022-10-01T14:44:28.615Z,58.32
2022-10-01T14:47:00.997Z,57.59
2022-10-01T14:49:30.324Z,57.65
2022-10-01T14:52:05.917Z,57.47
2022-10-01T14:54:46.599Z,57.10
2022-10-01T14:57:24.375Z,56.59
2022-10-01T14:59:50.878Z,55.32
2022-10-01T15:02:20.360Z,55.71
2022-10-01T15:04:52.335Z,54.46
2022-10-01T15:07:19.538Z,55.02
2022-10-01T15:09:48.146Z,54.68
2022-10-01T15:12:16.438Z,54.21
2022-10-01T15:14:43.745Z,54.35
2022-10-01T15:17:23.211Z,53.59
2022-10-01T15:19:52.675Z,53.34
2022-10-01T15:22:23.107Z,52.67
2022-10-01T15:24:56.349Z,52.54
2022-10-01T15:27:26.105Z,52.85
2022-10-01T15:30:16.620Z,52.77
2022-10-01T15:32:56.750Z,52.52
2022-10-01T15:35:25.372Z,51.87
2022-10-01T15:37:55.381Z,52.53
2022-10-01T15:40:39.018Z,52.50
2022-10-01T15:43:08.738Z,52.52
2022-10-01T15:45:39.073Z,52.57
2022-10-01T15:48:05.499Z,53.06
2022-10-01T15:50:39.147Z,52.87
2022-10-01T15:53:22.081Z,52.92
2022-10-01T15:55:53.246Z,53.23
2022-10-01T15:58:22.753Z,53.06
2022-10-01T16:01:22.498Z,53.08
2022-10-01T16:03:56.162Z,53.04
2022-10-01T16:06:35.582Z,53.45
2022-10-01T16:12:27.253Z,53.42
2022-10-01T16:14:59.717Z,53.63
2022-10-01T16:17:33.916Z,53.70
2022-10-01T16:20:15.289Z,53.94
2022-10-01T16:22:48.356Z,54.31
2022-10-01T16:25:46.625Z,54.86
2022-10-01T16:28:31.009Z,55.14
2022-10-01T16:31:09.066Z,55.10
2022-10-01T16:33:41.929Z,55.20
2022-10-01T16:36:13.724Z,55.31
2022-10-01T16:38:46.791Z,55.43
2022-10-01T16:41:37.243Z,56.24
2022-10-01T16:44:18.021Z,56.26
2022-10-01T16:46:45.939Z,56.47
2022-10-01T16:49:15.323Z,57.89
2022-10-01T16:51:44.950Z,58.99
2022-10-01T16:54:26.917Z,60.56
2022-10-01T16:56:56.705Z,60.25
2022-10-01T16:59:25.691Z,63.73
2022-10-01T17:02:17.063Z,64.66
2022-10-01T17:07:38.973Z,65.38
2022-10-01T17:10:06.194Z,65.75
2022-10-01T17:12:32.613Z,65.79
2022-10-01T17:14:58.941Z,66.70
2022-10-01T17:17:25.275Z,67.49
2022-10-01T17:19:51.659Z,67.55
2022-10-01T17:22:18.364Z,68.71
2022-10-01T17:24:50.797Z,69.95
2022-10-01T17:27:17.881Z,71.27
2022-10-01T17:29:44.405Z,72.34
2022-10-01T17:32:12.401Z,72.30
2022-10-01T17:34:38.890Z,72.88
2022-10-01T17:37:05.228Z,72.96
2022-10-01T17:39:32.853Z,73.20
2022-10-01T17:41:59.791Z,72.50
2022-10-01T17:44:26.769Z,72.41
2022-10-01T17:46:53.090Z,72.40
2022-10-01T17:49:19.487Z,71.89
2022-10-01T17:51:45.882Z,72.89
2022-10-01T17:54:12.215Z,72.54
2022-10-01T17:56:38.763Z,72.81
2022-10-01T17:59:05.391Z,73.19
2022-10-01T18:01:31.914Z,73.42
2022-10-01T18:04:00.282Z,73.62
2022-10-01T18:06:27.131Z,73.53
2022-10-01T18:08:56.189Z,73.92
2022-10-01T18:11:25.497Z,74.57
2022-10-01T18:13:52.950Z,74.10
2022-10-01T18:16:19.736Z,74.26
2022-10-01T18:21:33.189Z,74.39
2022-10-01T18:24:04.155Z,74.33
2022-10-01T18:26:31.542Z,74.27
2022-10-01T18:28:58.218Z,74.76
2022-10-01T18:31:45.918Z,74.75
2022-10-01T18:34:22.576Z,75.03
2022-10-01T18:36:55.404Z,75.24
2022-10-01T18:40:00.047Z,75.51
2022-10-01T18:42:44.175Z,75.44
2022-10-01T18:45:33.064Z,74.94
2022-10-01T18:48:30.211Z,75.08
2022-10-01T18:51:12.589Z,75.09
2022-10-01T18:54:06.036Z,75.32
2022-10-01T18:57:28.761Z,75.59
2022-10-01T19:00:24.963Z,75.84
2022-10-01T19:03:37.075Z,76.37
2022-10-01T19:06:34.380Z,76.81
2022-10-01T19:09:27.808Z,77.07
2022-10-01T19:12:09.257Z,77.06
2022-10-01T19:15:06.768Z,77.15
2022-10-01T19:21:21.869Z,77.30
2022-10-01T19:24:36.521Z,77.47
2022-10-01T19:27:11.823Z,77.49
2022-10-01T19:30:04.410Z,77.54
2022-10-01T19:32:39.997Z,77.60
2022-10-01T19:35:30.096Z,77.82
2022-10-01T19:38:05.244Z,77.81
2022-10-01T19:40:36.521Z,77.95
2022-10-01T19:47:34.648Z,77.85
2022-10-01T19:50:28.336Z,78.05
2022-10-01T19:52:58.088Z,78.06
2022-10-01T19:55:26.987Z,78.22
2022-10-01T19:57:54.600Z,78.12
2022-10-01T20:00:22.847Z,78.14
2022-10-01T20:02:54.472Z,78.20
2022-10-01T20:05:29.595Z,78.19
2022-10-01T20:08:16.394Z,78.50
2022-10-01T20:10:49.908Z,78.29
2022-10-01T20:13:43.491Z,78.23
2022-10-01T20:16:20.312Z,78.28
2022-10-01T20:19:18.494Z,78.30
2022-10-01T20:21:44.797Z,78.38
2022-10-01T20:25:19.094Z,78.24
2022-10-01T20:28:12.927Z,78.59
2022-10-01T20:31:29.205Z,78.73
2022-10-01T20:34:17.753Z,78.82
2022-10-01T20:40:11.270Z,79.19
2022-10-01T20:42:41.725Z,79.08
2022-10-01T20:45:35.402Z,79.05
2022-10-01T20:48:35.195Z,79.27
2022-10-01T20:51:22.687Z,79.22
2022-10-01T20:54:13.575Z,79.65
2022-10-01T20:56:55.322Z,79.68
2022-10-01T20:59:58.029Z,79.91
2022-10-01T21:02:46.776Z,80.09
2022-10-01T21:05:24.602Z,80.17
2022-10-01T21:07:59.265Z,80.42
2022-10-01T21:10:36.386Z,80.72
2022-10-01T21:13:34.518Z,80.54
2022-10-01T21:16:13.217Z,80.70
2022-10-01T21:19:07.819Z,80.78
2022-10-01T21:21:56.495Z,80.78
2022-10-01T21:25:07.295Z,81.28
2022-10-01T21:27:46.916Z,81.03
2022-10-01T21:30:20.869Z,81.18
2022-10-01T21:33:05.917Z,81.26
2022-10-01T21:36:08.288Z,81.67
2022-10-01T21:38:40.331Z,81.53
2022-10-01T21:41:46.088Z,81.66
2022-10-01T21:44:30.741Z,81.89
2022-10-01T21:47:29.163Z,82.04
2022-10-01T21:50:36.795Z,81.98
2022-10-01T21:53:15.680Z,82.21
2022-10-01T21:55:54.430Z,82.24
2022-10-01T21:59:00.846Z,82.28
2022-10-01T22:01:39.269Z,82.57
2022-10-01T22:04:17.734Z,82.40
2022-10-01T22:07:01.885Z,82.90
2022-10-01T22:09:37.868Z,83.02
2022-10-01T22:12:06.597Z,83.18
2022-10-01T22:14:33.218Z,83.63
2022-10-01T22:17:09.624Z,83.88
2022-10-01T22:19:42.846Z,84.29
2022-10-01T22:22:16.790Z,84.47
2022-10-01T22:24:54.035Z,84.62
2022-10-01T22:27:28.442Z,84.61
2022-10-01T22:30:08.418Z,84.68
2022-10-01T22:32:42.087Z,84.77
2022-10-01T22:35:19.983Z,84.72
2022-10-01T22:38:02.798Z,84.84
2022-10-01T22:40:35.915Z,84.93
2022-10-01T22:43:09.138Z,84.92
2022-10-01T22:45:58.787Z,85.19
2022-10-01T22:48:48.798Z,85.38
2022-10-01T22:51:22.647Z,85.67
2022-10-01T22:54:07.517Z,85.53
2022-10-01T22:56:43.957Z,85.53
2022-10-01T22:59:33.813Z,85.73
2022-10-01T23:02:22.799Z,85.73
2022-10-01T23:04:54.994Z,85.70
2022-10-01T23:07:54.018Z,85.69
2022-10-01T23:10:32.585Z,85.62
2022-10-01T23:13:36.554Z,85.47
2022-10-01T23:16:27.507Z,84.97
2022-10-01T23:19:18.185Z,85.06
2022-10-01T23:22:11.278Z,84.64
2022-10-01T23:24:46.105Z,84.48
2022-10-01T23:27:41.236Z,84.11
2022-10-01T23:30:13.571Z,84.11
2022-10-01T23:33:00.477Z,84.11
2022-10-01T23:35:42.584Z,84.13
2022-10-01T23:38:19.099Z,84.08
2022-10-01T23:40:48.388Z,84.26
2022-10-01T23:43:33.113Z,84.34
2022-10-01T23:46:20.022Z,84.11
2022-10-01T23:49:11.482Z,83.90
2022-10-01T23:51:55.324Z,83.90
2022-10-01T23:54:29.977Z,84.19
2022-10-01T23:57:04.748Z,84.98
2022-10-01T23:59:58.437Z,85.66
